createdAt,value
2018-11-21T00:00:25.155Z,6.00
2018-11-21T00:02:53.852Z,6.09
2018-11-21T00:05:22.515Z,6.17
2018-11-21T00:07:51.215Z,6.17
2018-11-21T00:10:19.913Z,6.19
2018-11-21T00:13:07.914Z,6.18
2018-11-21T00:15:36.568Z,6.24
2018-11-21T00:18:05.306Z,6.36
2018-11-21T00:20:33.963Z,6.42
2018-11-21T00:23:02.655Z,6.49
2018-11-21T00:25:31.353Z,6.50
2018-11-21T00:28:00.047Z,6.52
2018-11-21T00:30:28.715Z,6.46
2018-11-21T00:33:16.634Z,6.45
2018-11-21T00:35:45.323Z,6.36
2018-11-21T00:38:13.965Z,6.26
2018-11-21T00:40:42.648Z,6.15
2018-11-21T00:43:11.362Z,6.14
2018-11-21T00:45:40.012Z,6.14
2018-11-21T00:48:08.716Z,6.14
2018-11-21T00:50:37.479Z,6.17
2018-11-21T00:53:06.204Z,6.17
2018-11-21T00:55:34.880Z,6.10
2018-11-21T00:58:03.579Z,6.11
2018-11-21T01:00:32.295Z,6.15
2018-11-21T01:03:01.017Z,6.20
2018-11-21T01:05:29.704Z,6.22
2018-11-21T01:07:58.405Z,6.25
2018-11-21T01:10:27.072Z,6.24
2018-11-21T01:12:55.740Z,6.24
2018-11-21T01:15:24.509Z,6.31
2018-11-21T01:17:53.252Z,6.20
2018-11-21T01:20:21.928Z,6.08
2018-11-21T01:22:50.663Z,6.08
2018-11-21T01:25:19.404Z,6.10
2018-11-21T01:27:48.075Z,6.12
2018-11-21T01:30:16.744Z,6.08
2018-11-21T01:32:45.420Z,6.05
2018-11-21T01:35:14.109Z,6.04
2018-11-21T01:37:42.862Z,6.09
2018-11-21T01:40:11.893Z,6.09
2018-11-21T01:42:40.542Z,6.09
2018-11-21T01:45:09.260Z,6.15
2018-11-21T01:47:37.980Z,6.16
2018-11-21T01:50:07.965Z,6.18
2018-11-21T01:52:36.734Z,6.27
2018-11-21T01:55:06.025Z,6.28
2018-11-21T01:57:34.742Z,6.33
2018-11-21T02:02:45.357Z,6.38
2018-11-21T02:05:14.062Z,6.40
2018-11-21T02:07:42.845Z,6.40
2018-11-21T02:10:11.567Z,6.34
2018-11-21T02:12:40.255Z,6.35
2018-11-21T02:15:08.925Z,6.38
2018-11-21T02:17:37.632Z,6.32
2018-11-21T02:20:07.977Z,6.28
2018-11-21T02:22:36.679Z,6.29
2018-11-21T02:25:06.234Z,6.29
2018-11-21T02:27:34.903Z,6.30
2018-11-21T02:32:45.838Z,6.40
2018-11-21T02:35:14.522Z,6.47
2018-11-21T02:37:43.180Z,6.58
2018-11-21T02:40:11.842Z,6.67
2018-11-21T02:42:40.478Z,6.71
2018-11-21T02:45:09.141Z,6.72
2018-11-21T02:47:37.802Z,6.72
2018-11-21T02:50:06.931Z,6.73
2018-11-21T02:52:35.606Z,6.73
2018-11-21T02:55:04.317Z,6.68
2018-11-21T02:57:34.194Z,6.73
2018-11-21T03:00:23.213Z,6.73
2018-11-21T03:02:51.894Z,6.77
2018-11-21T03:05:20.546Z,6.84
2018-11-21T03:08:08.303Z,6.66
2018-11-21T03:10:36.982Z,6.62
2018-11-21T03:13:06.240Z,6.59
2018-11-21T03:15:34.887Z,6.60
2018-11-21T03:18:03.532Z,6.58
2018-11-21T03:20:32.188Z,6.44
2018-11-21T03:23:00.892Z,6.43
2018-11-21T03:25:29.540Z,6.43
2018-11-21T03:27:58.240Z,6.45
2018-11-21T03:30:26.879Z,6.42
2018-11-21T03:32:55.563Z,6.38
2018-11-21T03:35:24.241Z,6.38
2018-11-21T03:37:53.043Z,6.45
2018-11-21T03:40:21.661Z,6.40
2018-11-21T03:42:50.368Z,6.42
2018-11-21T03:45:21.015Z,6.47
2018-11-21T03:47:49.718Z,6.48
2018-11-21T03:50:18.412Z,6.46
2018-11-21T03:52:47.080Z,6.49
2018-11-21T03:55:15.747Z,6.39
2018-11-21T03:57:44.388Z,6.31
2018-11-21T04:00:14.034Z,6.30
2018-11-21T04:02:42.991Z,6.22
2018-11-21T04:05:11.817Z,6.17
2018-11-21T04:07:40.495Z,6.19
2018-11-21T04:10:11.008Z,6.23
2018-11-21T04:12:39.837Z,6.26
2018-11-21T04:15:10.299Z,6.34
2018-11-21T04:17:38.966Z,6.39
2018-11-21T04:20:08.178Z,6.49
2018-11-21T04:22:37.115Z,6.59
2018-11-21T04:25:06.884Z,6.57
2018-11-21T04:27:35.585Z,6.55
2018-11-21T04:32:48.705Z,6.56
2018-11-21T04:35:17.398Z,6.59
2018-11-21T04:37:46.081Z,6.61
2018-11-21T04:40:14.743Z,6.67
2018-11-21T04:42:43.414Z,6.62
2018-11-21T04:45:12.122Z,6.63
2018-11-21T04:47:40.777Z,6.65
2018-11-21T04:50:09.793Z,6.58
2018-11-21T04:52:38.474Z,6.55
2018-11-21T04:55:08.301Z,6.59
2018-11-21T04:57:37.132Z,6.62
2018-11-21T05:00:07.861Z,6.62
2018-11-21T05:02:36.593Z,6.66
2018-11-21T05:05:06.630Z,6.65
2018-11-21T05:07:35.324Z,6.64
2018-11-21T05:10:04.115Z,6.61
2018-11-21T05:12:32.809Z,6.61
2018-11-21T05:15:01.494Z,6.68
2018-11-21T05:17:30.118Z,6.73
2018-11-21T05:19:58.819Z,6.80
2018-11-21T05:22:27.477Z,6.73
2018-11-21T05:24:56.151Z,6.74
2018-11-21T05:27:24.819Z,6.67
2018-11-21T05:29:53.446Z,6.67
2018-11-21T05:32:22.118Z,6.66
2018-11-21T05:34:50.773Z,6.67
2018-11-21T05:37:19.499Z,6.59
2018-11-21T05:39:48.216Z,6.61
2018-11-21T05:42:16.904Z,6.65
2018-11-21T05:44:45.568Z,6.72
2018-11-21T05:47:14.248Z,6.72
2018-11-21T05:49:42.952Z,6.68
2018-11-21T05:52:11.691Z,6.70
2018-11-21T05:54:40.374Z,6.63
2018-11-21T05:57:09.144Z,6.64
2018-11-21T05:59:37.789Z,6.66
2018-11-21T06:02:06.505Z,6.64
2018-11-21T06:04:35.175Z,6.63
2018-11-21T06:07:03.850Z,6.66
2018-11-21T06:09:32.502Z,6.70
2018-11-21T06:12:04.387Z,6.74
2018-11-21T06:14:29.925Z,6.80
2018-11-21T06:16:58.664Z,6.81
2018-11-21T06:19:27.400Z,6.86
2018-11-21T06:21:56.093Z,6.91
2018-11-21T06:24:24.843Z,6.90
2018-11-21T06:27:13.832Z,6.93
2018-11-21T06:29:42.549Z,6.96
2018-11-21T06:32:11.245Z,6.90
2018-11-21T06:34:39.873Z,6.98
2018-11-21T06:37:08.555Z,7.04
2018-11-21T06:39:37.215Z,7.06
2018-11-21T06:42:06.272Z,7.14
2018-11-21T06:44:34.928Z,7.15
2018-11-21T06:47:03.659Z,7.15
2018-11-21T06:49:32.352Z,7.20
2018-11-21T06:52:01.062Z,7.29
2018-11-21T06:54:29.745Z,7.30
2018-11-21T06:56:58.515Z,7.33
2018-11-21T06:59:27.141Z,7.36
2018-11-21T07:01:55.819Z,7.36
2018-11-21T07:04:24.472Z,7.38
2018-11-21T07:06:53.157Z,7.38
2018-11-21T07:09:21.837Z,7.42
2018-11-21T07:11:50.531Z,7.47
2018-11-21T07:14:19.224Z,7.58
2018-11-21T07:16:47.892Z,7.60
2018-11-21T07:19:16.627Z,7.66
2018-11-21T07:21:45.326Z,7.65
2018-11-21T07:24:14.036Z,7.69
2018-11-21T07:26:42.760Z,7.73
2018-11-21T07:29:11.501Z,7.83
2018-11-21T07:31:40.195Z,7.80
2018-11-21T07:34:08.866Z,7.86
2018-11-21T07:36:37.557Z,7.74
2018-11-21T07:39:09.140Z,7.74
2018-11-21T07:41:37.802Z,7.66
2018-11-21T07:44:06.437Z,7.64
2018-11-21T07:46:35.083Z,7.53
2018-11-21T07:49:03.742Z,7.35
2018-11-21T07:51:32.625Z,7.31
2018-11-21T07:54:01.309Z,7.14
2018-11-21T07:57:08.583Z,7.05
2018-11-21T07:59:37.261Z,6.98
2018-11-21T08:02:26.262Z,7.04
2018-11-21T08:05:01.212Z,6.98
2018-11-21T08:07:48.888Z,6.92
2018-11-21T08:10:36.557Z,6.96
2018-11-21T08:13:17.552Z,6.93
2018-11-21T08:16:05.256Z,6.88
2018-11-21T08:18:52.953Z,6.83
2018-11-21T08:21:41.034Z,6.83
2018-11-21T08:24:28.743Z,6.70
2018-11-21T08:27:16.391Z,6.59
2018-11-21T08:29:45.073Z,6.51
2018-11-21T08:32:13.780Z,6.44
2018-11-21T08:34:42.463Z,6.40
2018-11-21T08:37:11.119Z,6.49
2018-11-21T08:39:39.787Z,6.43
2018-11-21T08:42:08.416Z,6.35
2018-11-21T08:44:37.072Z,6.43
2018-11-21T08:47:05.988Z,6.41
2018-11-21T08:49:34.694Z,6.30
2018-11-21T08:52:04.192Z,6.26
2018-11-21T08:54:32.868Z,6.18
2018-11-21T08:57:01.545Z,6.22
2018-11-21T08:59:30.233Z,6.24
2018-11-21T09:01:58.903Z,6.19
2018-11-21T09:04:27.569Z,6.10
2018-11-21T09:06:56.247Z,6.19
2018-11-21T09:09:24.903Z,6.07
2018-11-21T09:11:53.533Z,6.03
2018-11-21T09:14:22.142Z,5.98
2018-11-21T09:16:50.811Z,6.05
2018-11-21T09:19:19.464Z,6.16
2018-11-21T09:21:48.455Z,6.12
2018-11-21T09:24:20.510Z,6.20
2018-11-21T09:26:50.211Z,6.23
2018-11-21T09:29:18.911Z,6.17
2018-11-21T09:31:47.581Z,6.18
2018-11-21T09:34:16.315Z,6.12
2018-11-21T09:36:45.022Z,6.10
2018-11-21T09:39:14.083Z,6.18
2018-11-21T09:41:42.791Z,6.22
2018-11-21T09:44:11.447Z,6.17
2018-11-21T09:46:40.136Z,5.96
2018-11-21T09:49:08.824Z,5.94
2018-11-21T09:51:37.508Z,5.76
2018-11-21T09:54:06.212Z,5.63
2018-11-21T09:56:34.906Z,5.62
2018-11-21T09:59:03.546Z,5.58
2018-11-21T10:02:11.154Z,5.60
2018-11-21T10:04:39.860Z,5.68
2018-11-21T10:07:08.561Z,5.56
2018-11-21T10:09:40.346Z,5.68
2018-11-21T10:12:08.963Z,5.62
2018-11-21T10:14:37.639Z,5.72
2018-11-21T10:17:06.297Z,5.77
2018-11-21T10:19:34.995Z,5.77
2018-11-21T10:22:03.623Z,5.68
2018-11-21T10:24:32.312Z,5.67
2018-11-21T10:27:00.979Z,5.67
2018-11-21T10:29:29.642Z,5.57
2018-11-21T10:31:58.278Z,5.58
2018-11-21T10:34:26.930Z,5.45
2018-11-21T10:36:55.598Z,5.43
2018-11-21T10:39:24.247Z,5.40
2018-11-21T10:41:52.914Z,5.45
2018-11-21T10:44:21.614Z,5.49
2018-11-21T10:46:50.301Z,5.55
2018-11-21T10:49:18.937Z,5.65
2018-11-21T10:51:47.602Z,5.64
2018-11-21T10:54:16.240Z,5.54
2018-11-21T10:56:45.573Z,5.54
2018-11-21T10:59:14.482Z,5.56
2018-11-21T11:02:02.290Z,5.69
2018-11-21T11:04:35.164Z,5.67
2018-11-21T11:07:22.983Z,5.58
2018-11-21T11:10:10.657Z,5.43
2018-11-21T11:12:58.331Z,5.61
2018-11-21T11:15:46.001Z,5.82
2018-11-21T11:18:38.509Z,5.88
2018-11-21T11:21:21.433Z,6.02
2018-11-21T11:24:01.796Z,5.98
2018-11-21T11:26:49.467Z,5.94
2018-11-21T11:29:37.175Z,6.03
2018-11-21T11:32:24.893Z,6.08
2018-11-21T11:35:12.550Z,6.03
2018-11-21T11:38:00.229Z,6.09
2018-11-21T11:40:47.928Z,6.16
2018-11-21T11:43:35.639Z,5.97
2018-11-21T11:46:25.517Z,5.89
2018-11-21T11:49:14.112Z,5.88
2018-11-21T11:52:01.803Z,5.89
2018-11-21T11:54:49.470Z,5.90
2018-11-21T11:57:37.131Z,5.89
2018-11-21T12:00:27.188Z,5.93
2018-11-21T12:03:14.864Z,5.85
2018-11-21T12:06:02.563Z,5.75
2018-11-21T12:08:50.859Z,5.78
2018-11-21T12:11:38.582Z,5.74
2018-11-21T12:14:26.504Z,5.67
2018-11-21T12:17:14.264Z,5.72
2018-11-21T12:20:01.878Z,5.79
2018-11-21T12:22:49.528Z,5.86
2018-11-21T12:25:37.154Z,5.80
2018-11-21T12:28:25.259Z,5.67
2018-11-21T12:31:12.943Z,5.62
2018-11-21T12:34:00.635Z,5.61
2018-11-21T12:36:48.381Z,5.58
2018-11-21T12:39:36.044Z,5.65
2018-11-21T12:42:23.756Z,5.72
2018-11-21T12:45:12.286Z,5.74
2018-11-21T12:47:59.983Z,5.71
2018-11-21T12:50:47.631Z,5.75
2018-11-21T12:53:35.294Z,5.69
2018-11-21T12:56:25.871Z,5.62
2018-11-21T12:59:13.541Z,5.58
2018-11-21T13:02:01.739Z,5.59
2018-11-21T13:04:49.405Z,5.56
2018-11-21T13:07:37.103Z,5.62
2018-11-21T13:10:25.491Z,5.65
2018-11-21T13:13:13.166Z,5.69
2018-11-21T13:15:53.115Z,5.65
2018-11-21T13:18:40.773Z,5.64
2018-11-21T13:21:24.120Z,5.66
2018-11-21T13:24:11.822Z,5.53
2018-11-21T13:26:59.602Z,5.52
2018-11-21T13:29:47.371Z,5.32
2018-11-21T13:32:35.011Z,5.37
2018-11-21T13:35:22.683Z,5.39
2018-11-21T13:38:01.866Z,5.26
2018-11-21T13:40:49.508Z,5.22
2018-11-21T13:43:37.161Z,5.25
2018-11-21T13:46:25.135Z,5.32
2018-11-21T13:49:12.804Z,5.32
2018-11-21T13:52:00.496Z,5.26
2018-11-21T13:54:48.154Z,5.20
2018-11-21T13:57:18.268Z,5.12
2018-11-21T13:59:46.985Z,5.09
2018-11-21T14:02:15.629Z,5.02
2018-11-21T14:04:44.375Z,4.97
2018-11-21T14:07:13.095Z,4.91
2018-11-21T14:09:41.695Z,4.94
2018-11-21T14:12:10.604Z,4.96
2018-11-21T14:14:39.247Z,5.01
2018-11-21T14:17:07.994Z,5.06
2018-11-21T14:19:36.679Z,5.01
2018-11-21T14:22:05.447Z,5.05
2018-11-21T14:24:34.143Z,5.07
2018-11-21T14:27:02.795Z,5.03
2018-11-21T14:29:31.458Z,5.06
2018-11-21T14:32:00.165Z,5.08
2018-11-21T14:34:28.835Z,5.11
2018-11-21T14:36:57.517Z,5.09
2018-11-21T14:39:26.221Z,5.10
2018-11-21T14:41:54.856Z,5.11
2018-11-21T14:44:23.538Z,4.98
2018-11-21T14:46:53.469Z,4.84
2018-11-21T14:49:22.152Z,4.83
2018-11-21T14:51:50.834Z,4.81
2018-11-21T14:54:19.558Z,4.70
2018-11-21T14:56:48.225Z,4.66
2018-11-21T14:59:16.879Z,4.64
2018-11-21T15:01:45.577Z,4.59
2018-11-21T15:04:14.485Z,4.59
2018-11-21T15:06:43.216Z,4.51
2018-11-21T15:09:12.919Z,4.40
2018-11-21T15:11:44.388Z,4.39
2018-11-21T15:14:13.034Z,4.37
2018-11-21T15:16:41.842Z,4.35
2018-11-21T15:19:10.583Z,4.38
2018-11-21T15:21:39.292Z,4.37
2018-11-21T15:24:07.964Z,4.38
2018-11-21T15:26:36.659Z,4.43
2018-11-21T15:29:05.332Z,4.44
2018-11-21T15:31:34.017Z,4.39
2018-11-21T15:34:02.717Z,4.36
2018-11-21T15:36:31.436Z,4.35
2018-11-21T15:39:00.546Z,4.36
2018-11-21T15:41:29.278Z,4.41
2018-11-21T15:43:57.993Z,4.41
2018-11-21T15:46:26.703Z,4.41
2018-11-21T15:48:55.429Z,4.36
2018-11-21T15:51:24.244Z,4.32
2018-11-21T15:53:53.040Z,4.37
2018-11-21T15:56:22.052Z,4.41
2018-11-21T15:58:50.432Z,4.49
2018-11-21T16:01:33.812Z,4.32
2018-11-21T16:04:22.212Z,4.28
2018-11-21T16:06:51.308Z,4.31
2018-11-21T16:09:19.994Z,4.32
2018-11-21T16:11:48.682Z,4.33
2018-11-21T16:14:17.359Z,4.36
2018-11-21T16:16:46.043Z,4.44
2018-11-21T16:19:14.740Z,4.52
2018-11-21T16:21:43.485Z,4.56
2018-11-21T16:24:12.229Z,4.57
2018-11-21T16:26:40.882Z,4.58
2018-11-21T16:29:09.571Z,4.58
2018-11-21T16:31:38.203Z,4.58
2018-11-21T16:34:06.967Z,4.54
2018-11-21T16:36:35.680Z,4.50
2018-11-21T16:39:06.164Z,4.45
2018-11-21T16:41:34.875Z,4.53
2018-11-21T16:44:03.589Z,4.49
2018-11-21T16:46:32.214Z,4.45
2018-11-21T16:49:00.907Z,4.43
2018-11-21T16:51:29.564Z,4.46
2018-11-21T16:53:58.318Z,4.39
2018-11-21T16:56:26.961Z,4.32
2018-11-21T16:58:55.711Z,4.28
2018-11-21T17:01:24.385Z,4.31
2018-11-21T17:03:53.140Z,4.27
2018-11-21T17:06:21.860Z,4.23
2018-11-21T17:08:50.429Z,4.24
2018-11-21T17:11:19.133Z,4.25
2018-11-21T17:14:08.143Z,4.28
2018-11-21T17:16:36.833Z,4.30
2018-11-21T17:19:05.694Z,4.23
2018-11-21T17:21:34.663Z,4.23
2018-11-21T17:24:03.245Z,4.20
2018-11-21T17:26:31.900Z,4.16
2018-11-21T17:29:00.539Z,4.20
2018-11-21T17:31:29.230Z,4.18
2018-11-21T17:33:57.898Z,4.22
2018-11-21T17:36:26.578Z,4.23
2018-11-21T17:38:55.267Z,4.24
2018-11-21T17:41:23.966Z,4.20
2018-11-21T17:43:52.645Z,4.23
2018-11-21T17:46:22.115Z,4.24
2018-11-21T17:48:49.987Z,4.25
2018-11-21T17:51:18.622Z,4.30
2018-11-21T17:53:47.304Z,4.30
2018-11-21T17:56:17.037Z,4.30
2018-11-21T17:58:46.278Z,4.36
2018-11-21T18:01:14.934Z,4.35
2018-11-21T18:03:43.637Z,4.30
2018-11-21T18:06:12.333Z,4.26
2018-11-21T18:08:41.046Z,4.20
2018-11-21T18:11:09.805Z,4.16
2018-11-21T18:13:38.482Z,4.05
2018-11-21T18:16:07.151Z,3.98
2018-11-21T18:18:35.809Z,3.92
2018-11-21T18:21:04.508Z,3.90
2018-11-21T18:23:33.163Z,3.91
2018-11-21T18:26:01.835Z,3.91
2018-11-21T18:28:30.473Z,3.83
2018-11-21T18:30:59.162Z,3.81
2018-11-21T18:33:27.860Z,3.81
2018-11-21T18:35:56.929Z,3.84
2018-11-21T18:38:25.858Z,3.83
2018-11-21T18:40:54.437Z,3.85
2018-11-21T18:43:23.113Z,3.89
2018-11-21T18:45:52.564Z,3.88
2018-11-21T18:48:21.225Z,3.84
2018-11-21T18:50:49.942Z,3.75
2018-11-21T18:53:18.622Z,3.76
2018-11-21T18:56:25.966Z,3.79
2018-11-21T18:59:16.237Z,3.80
2018-11-21T19:01:46.806Z,3.72
2018-11-21T19:04:13.648Z,3.74
2018-11-21T19:06:42.302Z,3.72
2018-11-21T19:09:13.520Z,3.72
2018-11-21T19:11:42.186Z,3.67
2018-11-21T19:14:29.844Z,3.62
2018-11-21T19:16:58.547Z,3.56
2018-11-21T19:19:27.268Z,3.58
2018-11-21T19:21:56.015Z,3.53
2018-11-21T19:24:24.662Z,3.41
2018-11-21T19:26:53.366Z,3.30
2018-11-21T19:29:22.021Z,3.26
2018-11-21T19:31:50.638Z,3.29
2018-11-21T19:34:19.327Z,3.38
2018-11-21T19:36:48.012Z,3.33
2018-11-21T19:39:16.702Z,3.23
2018-11-21T19:41:45.388Z,3.21
2018-11-21T19:44:14.073Z,3.28
2018-11-21T19:46:42.740Z,3.37
2018-11-21T19:49:11.407Z,3.47
2018-11-21T19:51:40.106Z,3.56
2018-11-21T19:54:08.751Z,3.64
2018-11-21T19:56:37.489Z,3.71
2018-11-21T19:59:06.173Z,3.80
2018-11-21T20:01:34.794Z,3.83
2018-11-21T20:04:04.439Z,3.83
2018-11-21T20:06:33.260Z,3.95
2018-11-21T20:09:01.919Z,3.99
2018-11-21T20:11:30.621Z,3.98
2018-11-21T20:13:59.417Z,4.01
2018-11-21T20:16:45.468Z,3.99
2018-11-21T20:19:14.172Z,3.99
2018-11-21T20:21:42.825Z,4.06
2018-11-21T20:24:11.546Z,3.99
2018-11-21T20:26:40.232Z,3.97
2018-11-21T20:29:08.933Z,3.91
2018-11-21T20:31:37.552Z,3.90
2018-11-21T20:34:06.225Z,3.79
2018-11-21T20:36:34.918Z,3.83
2018-11-21T20:39:03.884Z,3.91
2018-11-21T20:41:32.563Z,3.88
2018-11-21T20:44:01.301Z,3.80
2018-11-21T20:46:30.037Z,3.83
2018-11-21T20:48:58.722Z,3.81
2018-11-21T20:51:27.375Z,3.71
2018-11-21T20:53:56.019Z,3.67
2018-11-21T20:56:24.692Z,3.68
2018-11-21T20:58:53.317Z,3.63
2018-11-21T21:01:22.023Z,3.52
2018-11-21T21:03:50.695Z,3.50
2018-11-21T21:06:19.413Z,3.49
2018-11-21T21:08:48.073Z,3.50
2018-11-21T21:11:16.794Z,3.58
2018-11-21T21:13:45.440Z,3.60
2018-11-21T21:16:14.102Z,3.60
2018-11-21T21:18:42.777Z,3.58
2018-11-21T21:21:15.686Z,3.49
2018-11-21T21:23:41.181Z,3.40
2018-11-21T21:26:09.828Z,3.42
2018-11-21T21:28:38.538Z,3.36
2018-11-21T21:31:07.224Z,3.33
2018-11-21T21:33:35.877Z,3.32
2018-11-21T21:36:04.557Z,3.26
2018-11-21T21:38:33.246Z,3.29
2018-11-21T21:41:01.906Z,3.29
2018-11-21T21:43:30.584Z,3.32
2018-11-21T21:45:59.237Z,3.34
2018-11-21T21:48:28.249Z,3.35
2018-11-21T21:50:56.920Z,3.44
2018-11-21T21:53:25.611Z,3.41
2018-11-21T21:55:54.302Z,3.46
2018-11-21T21:58:23.058Z,3.41
2018-11-21T22:00:51.777Z,3.46
2018-11-21T22:03:20.580Z,3.48
2018-11-21T22:05:49.293Z,3.41
2018-11-21T22:08:17.958Z,3.43
2018-11-21T22:10:46.611Z,3.48
2018-11-21T22:13:15.298Z,3.57
2018-11-21T22:15:43.985Z,3.59
2018-11-21T22:18:14.009Z,3.58
2018-11-21T22:20:42.703Z,3.53
2018-11-21T22:23:11.653Z,3.57
2018-11-21T22:25:40.659Z,3.60
2018-11-21T22:28:09.297Z,3.64
2018-11-21T22:30:37.975Z,3.67
2018-11-21T22:33:06.760Z,3.66
2018-11-21T22:35:37.026Z,3.69
2018-11-21T22:38:05.930Z,3.62
2018-11-21T22:40:34.667Z,3.58
2018-11-21T22:43:03.320Z,3.58
2018-11-21T22:45:32.006Z,3.56
2018-11-21T22:48:00.651Z,3.61
2018-11-21T22:50:29.305Z,3.58
2018-11-21T22:52:57.959Z,3.55
2018-11-21T22:55:26.634Z,3.55
2018-11-21T22:57:55.336Z,3.64
2018-11-21T23:00:43.183Z,3.70
2018-11-21T23:03:12.864Z,3.73
2018-11-21T23:05:41.624Z,3.71
2018-11-21T23:08:10.311Z,3.76
2018-11-21T23:10:38.959Z,3.71
2018-11-21T23:13:07.609Z,3.65
2018-11-21T23:15:36.285Z,3.60
2018-11-21T23:18:04.950Z,3.63
2018-11-21T23:20:33.696Z,3.66
2018-11-21T23:23:02.399Z,3.66
2018-11-21T23:25:31.139Z,3.59
2018-11-21T23:27:59.808Z,3.57
2018-11-21T23:30:28.454Z,3.66
2018-11-21T23:32:57.179Z,3.68
2018-11-21T23:35:25.781Z,3.68
2018-11-21T23:37:54.453Z,3.71
2018-11-21T23:40:23.088Z,3.68
2018-11-21T23:42:52.115Z,3.74
2018-11-21T23:45:20.804Z,3.70
2018-11-21T23:47:49.458Z,3.71
2018-11-21T23:50:19.348Z,3.62
2018-11-21T23:52:48.058Z,3.64
2018-11-21T23:55:18.299Z,3.72
2018-11-21T23:57:47.002Z,3.65
